Latest Coastal Weather Observations for Rundle Island

IDQ60701

Issued at 4:55 am EST Tuesday 2 September 2014 (issued every 10 minutes, with the page automatically refreshed every 10 minutes)

About coastal observations | Map of coastal stations | Coastal observations for QLD | Marine services | Other Formats
Station Details ID: 039322 Name: RUNDLE ISLAND Lat: -23.53 Lon: 151.28 Height: 19.8 m
Data from the previous 72 hours. | See also: Recent months at Rundle Island
Date/Time
EST
Temp

°C
Wind Pressure Rain
since 9am
mm
Weather Cloud Vis
km
Sea
Height
m
Swell
Dir
 
Speed
knots
Gust
knots
hPa Trend Height
m
Period
s
Dir
02/04:30am 19.7 NNW 11 12 1016.0 - - - - - - - - -
02/04:00am 19.8 NNW 10 11 1016.2 - - - - - - - - -
02/03:30am 19.8 NNW 9 11 1016.3 - - - - - - - - -
02/03:00am 19.9 NNW 10 12 1016.5 - - - - - - - - -
02/02:30am 19.9 NNW 10 12 1016.5 - - - - - - - - -
02/02:00am 19.9 NNW 8 9 1016.9 - - - - - - - - -
02/01:30am 19.9 NNW 8 9 1017.1 - - - - - - - - -
02/01:00am 19.9 NNW 8 9 1017.2 - - - - - - - - -
02/12:30am 20.0 NNW 7 8 1017.5 - - - - - - - - -
02/12:00am 20.0 NNW 8 9 1017.5 - - - - - - - - -
 
Date/Time
EST
Temp

°C
Wind Pressure Rain
since 9am
mm
Weather Cloud Vis
km
Sea
Height
m
Swell
Dir
 
Speed
knots
Gust
knots
hPa Trend Height
m
Period
s
Dir
01/11:30pm 20.1 N 7 8 1017.4 - - - - - - - - -
01/11:00pm 20.2 N 8 10 1017.6 - - - - - - - - -
01/10:30pm 20.2 N 9 11 1017.8 - - - - - - - - -
01/10:00pm 20.2 N 10 12 1017.6 - - - - - - - - -
01/09:30pm 20.4 N 11 13 1017.9 - - - - - - - - -
01/09:00pm 20.5 N 11 13 1017.8 - - - - - - - - -
01/08:30pm 20.4 NNE 12 14 1017.6 - - - - - - - - -
01/08:00pm 20.3 NNE 11 13 1017.5 - - - - - - - - -
01/07:30pm 20.3 NNE 10 12 1017.7 - - - - - - - - -
01/07:00pm 20.2 NNE 10 12 1017.3 - - - - - - - - -
01/06:30pm 20.1 NNE 11 12 1017.1 - - - - - - - - -
01/06:00pm 20.1 NNE 11 13 1016.7 - - - - - - - - -
01/05:30pm 20.4 NNE 11 12 1016.7 - - - - - - - - -
01/05:00pm 20.6 N 9 11 1016.7 - - - - - - - - -
01/04:30pm 20.4 N 8 9 1016.8 - - - - - - - - -
01/04:00pm 20.6 NNW 8 9 1016.4 - - - - - - - - -
01/03:30pm 20.3 N 9 10 1016.3 - - - - - - - - -
01/03:00pm 20.6 N 8 9 1016.6 - - - - - - - - -
01/02:30pm 20.2 N 7 9 1016.7 - - - - - - - - -
01/02:00pm 20.3 N 6 7 1016.9 - - - - - - - - -
01/01:30pm 20.5 N 5 6 1017.2 - - - - - - - - -
01/01:00pm 20.4 N 5 5 1017.9 - - - - - - - - -
01/12:30pm 20.4 N 5 5 1018.5 - - - - - - - - -
01/12:00pm 20.7 NNW 5 5 1019.0 - - - - - - - - -
01/11:30am 20.1 N 5 6 1018.7 - - - - - - - - -
01/11:00am 20.2 N 5 6 1018.7 - - - - - - - - -
01/10:30am 20.6 CALM 0 0 1019.5 - - - - - - - - -
01/10:00am 20.7 CALM 0 0 1019.8 - - - - - - - - -
01/09:30am 20.0 SSW 2 3 1020.2 - - - - - - - - -
01/09:00am 19.3 SW 4 5 1020.3 - - - - - - - - -
01/08:30am 18.5 SW 5 5 1020.0 - - - - - - - - -
01/08:00am 18.2 SW 5 6 1019.9 - - - - - - - - -
01/07:30am 18.1 SSW 5 6 1019.3 - - - - - - - - -
01/07:00am 17.8 SSW 5 7 1018.9 - - - - - - - - -
01/06:30am 17.8 SW 3 4 1018.4 - - - - - - - - -
01/06:00am 17.7 SSW 4 5 1018.2 - - - - - - - - -
01/05:30am 17.6 SSW 2 3 1017.9 - - - - - - - - -
01/05:00am 17.6 WSW 4 4 1017.7 - - - - - - - - -
01/04:30am 17.3 WSW 5 5 1017.8 - - - - - - - - -
01/04:00am 17.6 W 4 6 1017.8 - - - - - - - - -
01/03:30am 18.0 W 2 3 1017.7 - - - - - - - - -
01/03:00am 18.0 W 3 4 1017.7 - - - - - - - - -
01/02:30am 18.1 W 4 6 1017.9 - - - - - - - - -
01/02:00am 18.8 WNW 4 5 1017.9 - - - - - - - - -
01/01:30am 19.5 NW 6 8 1018.0 - - - - - - - - -
01/01:00am 19.6 NNW 7 8 1018.0 - - - - - - - - -
01/12:30am 19.6 NNW 8 9 1018.1 - - - - - - - - -
01/12:00am 19.7 NNW 8 9 1018.3 - - - - - - - - -
 
Date/Time
EST
Temp

°C
Wind Pressure Rain
since 9am
mm
Weather Cloud Vis
km
Sea
Height
m
Swell
Dir
 
Speed
knots
Gust
knots
hPa Trend Height
m
Period
s
Dir
31/11:30pm 19.7 NNW 8 9 1018.5 - - - - - - - - -
31/11:00pm 19.8 N 8 9 1018.5 - - - - - - - - -
31/10:30pm 19.9 N 8 10 1018.6 - - - - - - - - -
31/10:00pm 19.9 N 8 9 1018.6 - - - - - - - - -
31/09:30pm 19.9 NNE 9 10 1018.4 - - - - - - - - -
31/09:00pm 19.7 NNE 8 10 1018.3 - - - - - - - - -
31/08:30pm 19.7 NNE 10 11 1018.1 - - - - - - - - -
31/08:00pm 19.8 NNE 11 12 1017.7 - - - - - - - - -
31/07:30pm 19.9 NNE 11 12 1017.4 - - - - - - - - -
31/07:00pm 19.9 NNE 9 11 1016.9 - - - - - - - - -
31/06:30pm 20.1 N 9 11 1016.5 - - - - - - - - -
31/06:00pm 20.0 NNE 10 11 1016.1 - - - - - - - - -
31/05:30pm 20.3 NNE 9 11 1015.9 - - - - - - - - -
31/05:00pm 20.8 NNE 11 12 1015.4 - - - - - - - - -
31/04:30pm 20.9 NNE 9 11 1015.2 - - - - - - - - -
31/04:00pm 20.7 N 10 10 1015.1 - - - - - - - - -
31/03:30pm 20.4 N 9 10 1015.2 - - - - - - - - -
31/03:00pm 20.2 N 8 9 1015.3 - - - - - - - - -
31/02:30pm 20.4 NNW 8 9 1015.6 - - - - - - - - -
31/02:00pm 20.4 NNW 8 9 1015.9 - - - - - - - - -
31/01:30pm 19.9 NNW 9 10 1016.2 - - - - - - - - -
31/01:00pm 19.7 N 10 11 1016.7 - - - - - - - - -
31/12:30pm 19.1 N 9 10 1017.1 - - - - - - - - -
31/12:00pm 19.2 N 9 10 1017.4 - - - - - - - - -
31/11:30am 19.4 N 7 7 1018.0 - - - - - - - - -
31/11:00am 19.4 N 5 6 1018.4 - - - - - - - - -
31/10:30am 19.3 N 3 4 1018.7 - - - - - - - - -
31/10:00am 20.2 CALM 0 2 1019.0 - - - - - - - - -
31/09:30am 19.0 WSW 4 5 1019.0 - - - - - - - - -
31/09:00am 18.8 SW 5 6 1019.2 - - - - - - - - -
31/08:30am 17.9 WSW 4 5 1019.4 - - - - - - - - -
31/08:00am 17.7 WSW 4 5 1019.1 - - - - - - - - -
31/07:30am 17.7 WSW 2 3 1018.8 - - - - - - - - -
31/07:00am 17.3 W 4 5 1018.6 - - - - - - - - -
31/06:30am 17.0 W 4 5 1018.2 - - - - - - - - -
31/06:00am 17.3 W 3 4 1018.0 - - - - - - - - -
31/05:30am 17.3 WSW 5 6 1017.6 - - - - - - - - -
31/05:00am 17.6 WSW 6 7 1017.5 - - - - - - - - -
31/04:30am 17.5 SSW 4 5 1017.6 - - - - - - - - -
31/04:00am 17.3 WSW 5 6 1017.4 - - - - - - - - -
31/03:30am 17.6 SW 5 6 1017.2 - - - - - - - - -
31/03:00am 17.9 WSW 5 6 1017.2 - - - - - - - - -
31/02:30am 19.4 NNW 8 10 1017.4 - - - - - - - - -
31/02:00am 19.3 NNW 9 10 1017.5 - - - - - - - - -
31/01:30am 19.4 NNW 9 10 1017.8 - - - - - - - - -
31/01:00am 19.6 NNW 11 12 1017.8 - - - - - - - - -
31/12:30am 19.5 NNW 12 13 1017.9 - - - - - - - - -
31/12:00am 19.6 NNW 11 12 1018.2 - - - - - - - - -
 
Date/Time
EST
Temp

°C
Wind Pressure Rain
since 9am
mm
Weather Cloud Vis
km
Sea
Height
m
Swell
Dir
 
Speed
knots
Gust
knots
hPa Trend Height
m
Period
s
Dir
30/11:30pm 19.7 NNW 9 11 1018.4 - - - - - - - - -
30/11:00pm 19.8 N 9 10 1018.6 - - - - - - - - -
30/10:30pm 19.7 N 9 10 1018.5 - - - - - - - - -
30/10:00pm 19.8 N 8 9 1018.5 - - - - - - - - -
30/09:30pm 19.9 N 9 11 1018.5 - - - - - - - - -
30/09:00pm 19.8 N 10 11 1018.4 - - - - - - - - -
30/08:30pm 19.8 N 10 12 1018.4 - - - - - - - - -
30/08:00pm 19.9 N 12 13 1018.2 - - - - - - - - -
30/07:30pm 19.9 N 12 14 1017.8 - - - - - - - - -
30/07:00pm 19.9 N 13 14 1017.2 - - - - - - - - -
30/06:30pm 19.9 N 12 13 1016.8 - - - - - - - - -
30/06:00pm 20.0 N 10 11 1016.4 - - - - - - - - -
30/05:30pm 20.4 NNE 10 11 1016.2 - - - - - - - - -
30/05:00pm 20.4 NE 9 10 1015.9 - - - - - - - - -
30/04:30pm 20.5 NNE 11 13 1015.7 - - - - - - - - -
30/04:00pm 20.5 NNE 12 14 1015.6 - - - - - - - - -
30/03:30pm 20.9 NNE 11 12 1015.7 - - - - - - - - -
30/03:00pm 21.7 NNE 10 11 1015.8 - - - - - - - - -
30/02:30pm 21.5 NNE 8 10 1016.1 - - - - - - - - -
30/02:00pm 20.4 N 8 8 1016.6 - - - - - - - - -
30/01:30pm 20.0 N 8 9 1017.2 - - - - - - - - -
30/01:00pm 20.1 N 8 9 1017.7 - - - - - - - - -
30/12:30pm 19.7 N 7 8 1018.4 - - - - - - - - -
30/12:00pm 19.6 N 5 7 1019.0 - - - - - - - - -
30/11:30am 21.8 NE 2 4 1019.6 - - - - - - - - -
30/11:00am 21.7 E 3 4 1020.0 - - - - - - - - -
30/10:30am 20.6 SE 4 5 1020.2 - - - - - - - - -
30/10:00am 19.7 SSE 5 5 1020.6 - - - - - - - - -
30/09:30am 19.2 S 5 6 1020.8 - - - - - - - - -
30/09:00am 18.8 S 7 8 1020.8 - - - - - - - - -
30/08:30am 18.0 SSW 8 9 1020.8 - - - - - - - - -
30/08:00am 17.3 SSW 9 10 1020.6 - - - - - - - - -
30/07:30am 17.0 SSW 9 10 1020.6 - - - - - - - - -
30/07:00am 17.0 SSW 11 12 1020.4 - - - - - - - - -
30/06:30am 16.9 S 11 12 1020.1 - - - - - - - - -
30/06:00am 16.8 SSW 12 13 1019.8 - - - - - - - - -
30/05:30am 16.9 S 10 11 1019.6 - - - - - - - - -
30/05:00am 17.4 S 9 11 1019.3 - - - - - - - - -

Other Formats:

Comma delimited format used in spreadsheet applications
http://www.bom.gov.au/fwo/IDQ60701/IDQ60701.94378.axf

JavaScript Object Notation format (JSON) in row-major order
http://www.bom.gov.au/fwo/IDQ60701/IDQ60701.94378.json